sensor_id;sensor_type;location;lat;lon;timestamp;P1;durP1;ratioP1;P2;durP2;ratioP2
12263;SDS011;6194;49.010;8.414;2023-03-13T00:00:16;8.83;;;3.23;;
12263;SDS011;6194;49.010;8.414;2023-03-13T00:02:42;10.07;;;3.00;;
12263;SDS011;6194;49.010;8.414;2023-03-13T00:05:09;10.33;;;3.30;;
12263;SDS011;6194;49.010;8.414;2023-03-13T00:07:35;5.77;;;2.87;;
12263;SDS011;6194;49.010;8.414;2023-03-13T00:10:01;8.90;;;2.90;;
12263;SDS011;6194;49.010;8.414;2023-03-13T00:12:27;8.63;;;3.50;;
12263;SDS011;6194;49.010;8.414;2023-03-13T00:14:53;5.83;;;2.70;;
12263;SDS011;6194;49.010;8.414;2023-03-13T00:17:18;8.77;;;3.40;;
12263;SDS011;6194;49.010;8.414;2023-03-13T00:19:44;8.30;;;3.43;;
12263;SDS011;6194;49.010;8.414;2023-03-13T00:22:09;6.13;;;2.77;;
12263;SDS011;6194;49.010;8.414;2023-03-13T00:24:35;6.83;;;3.40;;
12263;SDS011;6194;49.010;8.414;2023-03-13T00:27:01;8.13;;;3.00;;
12263;SDS011;6194;49.010;8.414;2023-03-13T00:29:29;8.80;;;2.87;;
12263;SDS011;6194;49.010;8.414;2023-03-13T00:31:56;6.03;;;2.80;;
12263;SDS011;6194;49.010;8.414;2023-03-13T00:34:21;6.43;;;2.73;;
12263;SDS011;6194;49.010;8.414;2023-03-13T00:36:47;7.93;;;3.00;;
12263;SDS011;6194;49.010;8.414;2023-03-13T00:39:13;6.07;;;2.47;;
12263;SDS011;6194;49.010;8.414;2023-03-13T00:41:39;6.17;;;3.00;;
12263;SDS011;6194;49.010;8.414;2023-03-13T00:44:04;7.70;;;3.07;;
12263;SDS011;6194;49.010;8.414;2023-03-13T00:46:30;6.97;;;2.90;;
12263;SDS011;6194;49.010;8.414;2023-03-13T00:48:56;7.70;;;2.70;;
12263;SDS011;6194;49.010;8.414;2023-03-13T00:51:22;6.63;;;2.90;;
12263;SDS011;6194;49.010;8.414;2023-03-13T00:53:50;5.17;;;2.50;;
12263;SDS011;6194;49.010;8.414;2023-03-13T00:56:17;5.57;;;2.63;;
12263;SDS011;6194;49.010;8.414;2023-03-13T00:58:44;6.03;;;2.70;;
12263;SDS011;6194;49.010;8.414;2023-03-13T01:03:40;7.43;;;2.77;;
12263;SDS011;6194;49.010;8.414;2023-03-13T01:06:07;6.60;;;2.63;;
12263;SDS011;6194;49.010;8.414;2023-03-13T01:08:35;4.57;;;2.50;;
12263;SDS011;6194;49.010;8.414;2023-03-13T01:11:04;6.90;;;2.50;;
12263;SDS011;6194;49.010;8.414;2023-03-13T01:13:32;5.10;;;2.30;;
12263;SDS011;6194;49.010;8.414;2023-03-13T01:16:05;6.87;;;2.33;;
12263;SDS011;6194;49.010;8.414;2023-03-13T01:18:35;6.97;;;2.57;;
12263;SDS011;6194;49.010;8.414;2023-03-13T01:21:03;6.50;;;2.80;;
12263;SDS011;6194;49.010;8.414;2023-03-13T01:23:29;5.23;;;2.00;;
12263;SDS011;6194;49.010;8.414;2023-03-13T01:25:55;4.53;;;2.33;;
12263;SDS011;6194;49.010;8.414;2023-03-13T01:28:22;4.77;;;2.30;;
12263;SDS011;6194;49.010;8.414;2023-03-13T01:30:48;6.77;;;2.30;;
12263;SDS011;6194;49.010;8.414;2023-03-13T01:33:14;5.00;;;2.03;;
12263;SDS011;6194;49.010;8.414;2023-03-13T01:35:40;5.30;;;2.03;;
12263;SDS011;6194;49.010;8.414;2023-03-13T01:38:06;6.20;;;2.40;;
12263;SDS011;6194;49.010;8.414;2023-03-13T01:40:38;5.60;;;1.93;;
12263;SDS011;6194;49.010;8.414;2023-03-13T01:43:14;5.40;;;2.40;;
12263;SDS011;6194;49.010;8.414;2023-03-13T01:54:13;4.33;;;1.97;;
12263;SDS011;6194;49.010;8.414;2023-03-13T01:57:16;5.47;;;2.17;;
12263;SDS011;6194;49.010;8.414;2023-03-13T01:59:58;3.00;;;1.70;;
12263;SDS011;6194;49.010;8.414;2023-03-13T02:02:34;6.63;;;2.00;;
12263;SDS011;6194;49.010;8.414;2023-03-13T02:05:02;3.17;;;1.80;;
12263;SDS011;6194;49.010;8.414;2023-03-13T02:07:35;4.93;;;2.20;;
12263;SDS011;6194;49.010;8.414;2023-03-13T02:10:04;4.83;;;1.97;;
12263;SDS011;6194;49.010;8.414;2023-03-13T02:12:35;5.27;;;2.17;;
12263;SDS011;6194;49.010;8.414;2023-03-13T02:15:10;5.27;;;2.07;;
12263;SDS011;6194;49.010;8.414;2023-03-13T02:17:39;4.77;;;2.00;;
12263;SDS011;6194;49.010;8.414;2023-03-13T02:20:06;3.40;;;1.80;;
12263;SDS011;6194;49.010;8.414;2023-03-13T02:25:46;4.53;;;2.00;;
12263;SDS011;6194;49.010;8.414;2023-03-13T02:28:18;5.50;;;1.90;;
12263;SDS011;6194;49.010;8.414;2023-03-13T02:31:03;3.97;;;1.70;;
12263;SDS011;6194;49.010;8.414;2023-03-13T02:33:30;3.67;;;1.87;;
12263;SDS011;6194;49.010;8.414;2023-03-13T02:35:59;4.13;;;1.87;;
12263;SDS011;6194;49.010;8.414;2023-03-13T02:38:27;3.60;;;1.70;;
12263;SDS011;6194;49.010;8.414;2023-03-13T02:40:55;4.23;;;1.90;;
12263;SDS011;6194;49.010;8.414;2023-03-13T02:45:59;6.47;;;2.13;;
12263;SDS011;6194;49.010;8.414;2023-03-13T02:48:33;5.77;;;1.80;;
12263;SDS011;6194;49.010;8.414;2023-03-13T02:51:04;2.60;;;1.60;;
12263;SDS011;6194;49.010;8.414;2023-03-13T02:53:50;3.37;;;1.60;;
12263;SDS011;6194;49.010;8.414;2023-03-13T02:56:19;4.57;;;1.93;;
12263;SDS011;6194;49.010;8.414;2023-03-13T02:58:47;3.20;;;1.60;;
12263;SDS011;6194;49.010;8.414;2023-03-13T03:01:13;4.10;;;1.90;;
12263;SDS011;6194;49.010;8.414;2023-03-13T03:03:39;4.67;;;2.10;;
12263;SDS011;6194;49.010;8.414;2023-03-13T03:06:05;3.97;;;1.77;;
12263;SDS011;6194;49.010;8.414;2023-03-13T03:08:31;4.37;;;1.70;;
12263;SDS011;6194;49.010;8.414;2023-03-13T03:10:58;3.33;;;1.93;;
12263;SDS011;6194;49.010;8.414;2023-03-13T03:13:24;1.90;;;1.30;;
12263;SDS011;6194;49.010;8.414;2023-03-13T03:15:50;2.07;;;1.50;;
12263;SDS011;6194;49.010;8.414;2023-03-13T03:18:15;3.27;;;1.40;;
12263;SDS011;6194;49.010;8.414;2023-03-13T03:20:41;3.43;;;1.30;;
12263;SDS011;6194;49.010;8.414;2023-03-13T03:23:06;2.67;;;1.73;;
12263;SDS011;6194;49.010;8.414;2023-03-13T03:25:32;2.73;;;1.27;;
12263;SDS011;6194;49.010;8.414;2023-03-13T03:27:58;2.40;;;1.53;;
12263;SDS011;6194;49.010;8.414;2023-03-13T03:30:23;3.20;;;1.67;;
12263;SDS011;6194;49.010;8.414;2023-03-13T03:32:49;3.53;;;1.50;;
12263;SDS011;6194;49.010;8.414;2023-03-13T03:35:14;2.60;;;1.40;;
12263;SDS011;6194;49.010;8.414;2023-03-13T03:37:40;3.33;;;1.43;;
12263;SDS011;6194;49.010;8.414;2023-03-13T03:40:05;3.00;;;1.50;;
12263;SDS011;6194;49.010;8.414;2023-03-13T03:42:32;1.83;;;1.50;;
12263;SDS011;6194;49.010;8.414;2023-03-13T03:44:57;2.17;;;1.50;;
12263;SDS011;6194;49.010;8.414;2023-03-13T03:47:23;1.60;;;1.50;;
12263;SDS011;6194;49.010;8.414;2023-03-13T03:49:49;2.60;;;1.43;;
12263;SDS011;6194;49.010;8.414;2023-03-13T03:52:14;3.43;;;1.47;;
12263;SDS011;6194;49.010;8.414;2023-03-13T03:54:41;5.03;;;1.67;;
12263;SDS011;6194;49.010;8.414;2023-03-13T03:57:06;1.20;;;1.10;;
12263;SDS011;6194;49.010;8.414;2023-03-13T03:59:32;2.30;;;1.40;;
12263;SDS011;6194;49.010;8.414;2023-03-13T04:01:57;3.23;;;1.47;;
12263;SDS011;6194;49.010;8.414;2023-03-13T04:04:23;1.87;;;1.40;;
12263;SDS011;6194;49.010;8.414;2023-03-13T04:06:48;2.13;;;1.50;;
12263;SDS011;6194;49.010;8.414;2023-03-13T04:09:14;1.90;;;1.43;;
12263;SDS011;6194;49.010;8.414;2023-03-13T04:11:40;2.20;;;1.47;;
12263;SDS011;6194;49.010;8.414;2023-03-13T04:14:05;3.10;;;1.30;;
12263;SDS011;6194;49.010;8.414;2023-03-13T04:16:31;1.63;;;1.30;;
12263;SDS011;6194;49.010;8.414;2023-03-13T04:18:57;1.73;;;1.43;;
12263;SDS011;6194;49.010;8.414;2023-03-13T04:21:22;1.97;;;1.70;;
12263;SDS011;6194;49.010;8.414;2023-03-13T04:23:48;4.23;;;1.50;;
12263;SDS011;6194;49.010;8.414;2023-03-13T04:26:13;2.00;;;1.40;;
12263;SDS011;6194;49.010;8.414;2023-03-13T04:28:39;2.57;;;1.57;;
12263;SDS011;6194;49.010;8.414;2023-03-13T04:31:05;2.63;;;1.47;;
12263;SDS011;6194;49.010;8.414;2023-03-13T04:33:30;3.53;;;1.30;;
12263;SDS011;6194;49.010;8.414;2023-03-13T04:35:56;2.37;;;1.60;;
12263;SDS011;6194;49.010;8.414;2023-03-13T04:38:21;2.23;;;1.40;;
12263;SDS011;6194;49.010;8.414;2023-03-13T04:40:47;2.07;;;1.50;;
12263;SDS011;6194;49.010;8.414;2023-03-13T04:43:12;3.03;;;1.47;;
12263;SDS011;6194;49.010;8.414;2023-03-13T04:45:38;1.20;;;1.10;;
12263;SDS011;6194;49.010;8.414;2023-03-13T04:48:04;2.70;;;1.50;;
12263;SDS011;6194;49.010;8.414;2023-03-13T04:50:29;2.70;;;1.43;;
12263;SDS011;6194;49.010;8.414;2023-03-13T04:52:55;2.33;;;1.20;;
12263;SDS011;6194;49.010;8.414;2023-03-13T04:55:21;1.33;;;1.20;;
12263;SDS011;6194;49.010;8.414;2023-03-13T04:57:46;1.27;;;1.17;;
12263;SDS011;6194;49.010;8.414;2023-03-13T05:00:12;1.40;;;1.30;;
12263;SDS011;6194;49.010;8.414;2023-03-13T05:02:38;1.43;;;1.27;;
12263;SDS011;6194;49.010;8.414;2023-03-13T05:05:04;1.77;;;1.17;;
12263;SDS011;6194;49.010;8.414;2023-03-13T05:07:29;1.60;;;1.27;;
12263;SDS011;6194;49.010;8.414;2023-03-13T05:09:55;1.27;;;1.10;;
12263;SDS011;6194;49.010;8.414;2023-03-13T05:12:20;1.83;;;1.20;;
12263;SDS011;6194;49.010;8.414;2023-03-13T05:14:46;1.87;;;1.13;;
12263;SDS011;6194;49.010;8.414;2023-03-13T05:17:11;1.90;;;1.33;;
12263;SDS011;6194;49.010;8.414;2023-03-13T05:19:37;1.60;;;1.37;;
12263;SDS011;6194;49.010;8.414;2023-03-13T05:22:03;1.17;;;1.07;;
12263;SDS011;6194;49.010;8.414;2023-03-13T05:24:28;1.53;;;1.20;;
12263;SDS011;6194;49.010;8.414;2023-03-13T05:26:54;1.37;;;1.20;;
12263;SDS011;6194;49.010;8.414;2023-03-13T05:29:19;1.73;;;1.20;;
12263;SDS011;6194;49.010;8.414;2023-03-13T05:31:45;0.97;;;0.97;;
12263;SDS011;6194;49.010;8.414;2023-03-13T05:34:11;1.20;;;1.10;;
12263;SDS011;6194;49.010;8.414;2023-03-13T05:36:36;1.70;;;1.10;;
12263;SDS011;6194;49.010;8.414;2023-03-13T05:39:02;1.43;;;1.30;;
12263;SDS011;6194;49.010;8.414;2023-03-13T05:41:27;1.13;;;1.03;;
12263;SDS011;6194;49.010;8.414;2023-03-13T05:43:53;1.40;;;0.97;;
12263;SDS011;6194;49.010;8.414;2023-03-13T05:46:19;0.97;;;0.90;;
12263;SDS011;6194;49.010;8.414;2023-03-13T05:48:44;1.20;;;1.10;;
12263;SDS011;6194;49.010;8.414;2023-03-13T05:51:10;1.30;;;1.07;;
12263;SDS011;6194;49.010;8.414;2023-03-13T05:53:36;0.90;;;0.90;;
12263;SDS011;6194;49.010;8.414;2023-03-13T05:56:02;1.37;;;1.00;;
12263;SDS011;6194;49.010;8.414;2023-03-13T05:58:28;0.80;;;0.80;;
12263;SDS011;6194;49.010;8.414;2023-03-13T06:00:53;1.00;;;1.00;;
12263;SDS011;6194;49.010;8.414;2023-03-13T06:03:19;0.80;;;0.80;;
12263;SDS011;6194;49.010;8.414;2023-03-13T06:05:44;1.20;;;0.97;;
12263;SDS011;6194;49.010;8.414;2023-03-13T06:08:10;1.30;;;1.07;;
12263;SDS011;6194;49.010;8.414;2023-03-13T06:10:35;0.93;;;0.90;;
12263;SDS011;6194;49.010;8.414;2023-03-13T06:13:01;1.23;;;1.10;;
12263;SDS011;6194;49.010;8.414;2023-03-13T06:15:26;0.90;;;0.90;;
12263;SDS011;6194;49.010;8.414;2023-03-13T06:17:52;1.23;;;1.00;;
12263;SDS011;6194;49.010;8.414;2023-03-13T06:20:18;1.47;;;1.03;;
12263;SDS011;6194;49.010;8.414;2023-03-13T06:22:43;0.90;;;0.90;;
12263;SDS011;6194;49.010;8.414;2023-03-13T06:25:09;1.40;;;0.90;;
12263;SDS011;6194;49.010;8.414;2023-03-13T06:27:35;1.17;;;1.07;;
12263;SDS011;6194;49.010;8.414;2023-03-13T06:30:00;0.90;;;0.90;;
12263;SDS011;6194;49.010;8.414;2023-03-13T06:32:26;1.47;;;1.27;;
12263;SDS011;6194;49.010;8.414;2023-03-13T06:34:52;1.20;;;1.10;;
12263;SDS011;6194;49.010;8.414;2023-03-13T06:37:17;1.60;;;1.17;;
12263;SDS011;6194;49.010;8.414;2023-03-13T06:39:43;0.90;;;0.90;;
12263;SDS011;6194;49.010;8.414;2023-03-13T06:42:08;1.33;;;1.00;;
12263;SDS011;6194;49.010;8.414;2023-03-13T06:44:34;1.87;;;1.03;;
12263;SDS011;6194;49.010;8.414;2023-03-13T06:46:59;1.40;;;1.10;;
12263;SDS011;6194;49.010;8.414;2023-03-13T06:49:25;1.20;;;1.10;;
12263;SDS011;6194;49.010;8.414;2023-03-13T06:51:51;1.23;;;1.13;;
12263;SDS011;6194;49.010;8.414;2023-03-13T06:54:16;0.97;;;0.97;;
12263;SDS011;6194;49.010;8.414;2023-03-13T06:56:42;1.30;;;1.20;;
12263;SDS011;6194;49.010;8.414;2023-03-13T06:59:07;1.83;;;0.87;;
12263;SDS011;6194;49.010;8.414;2023-03-13T07:01:33;1.33;;;1.00;;
12263;SDS011;6194;49.010;8.414;2023-03-13T07:03:59;1.17;;;1.07;;
12263;SDS011;6194;49.010;8.414;2023-03-13T07:06:24;1.40;;;1.10;;
12263;SDS011;6194;49.010;8.414;2023-03-13T07:08:50;1.30;;;1.00;;
12263;SDS011;6194;49.010;8.414;2023-03-13T07:11:16;1.20;;;1.10;;
12263;SDS011;6194;49.010;8.414;2023-03-13T07:13:42;1.10;;;1.10;;
12263;SDS011;6194;49.010;8.414;2023-03-13T07:16:08;1.10;;;1.00;;
12263;SDS011;6194;49.010;8.414;2023-03-13T07:18:36;1.10;;;1.00;;
12263;SDS011;6194;49.010;8.414;2023-03-13T07:21:02;0.97;;;0.97;;
12263;SDS011;6194;49.010;8.414;2023-03-13T07:23:29;1.20;;;1.10;;
12263;SDS011;6194;49.010;8.414;2023-03-13T07:26:03;1.33;;;1.17;;
12263;SDS011;6194;49.010;8.414;2023-03-13T07:28:30;1.23;;;1.17;;
12263;SDS011;6194;49.010;8.414;2023-03-13T07:31:03;1.17;;;1.13;;
12263;SDS011;6194;49.010;8.414;2023-03-13T07:33:37;1.20;;;1.10;;
12263;SDS011;6194;49.010;8.414;2023-03-13T07:36:04;1.17;;;1.17;;
12263;SDS011;6194;49.010;8.414;2023-03-13T07:38:29;1.27;;;1.17;;
12263;SDS011;6194;49.010;8.414;2023-03-13T07:40:55;1.10;;;1.10;;
12263;SDS011;6194;49.010;8.414;2023-03-13T07:43:22;1.35;;;1.20;;
12263;SDS011;6194;49.010;8.414;2023-03-13T07:45:55;1.05;;;1.00;;
12263;SDS011;6194;49.010;8.414;2023-03-13T07:48:23;1.17;;;1.08;;
12263;SDS011;6194;49.010;8.414;2023-03-13T07:50:54;0.93;;;0.93;;
12263;SDS011;6194;49.010;8.414;2023-03-13T07:53:20;1.17;;;1.15;;
12263;SDS011;6194;49.010;8.414;2023-03-13T07:58:18;4.53;;;1.27;;
12263;SDS011;6194;49.010;8.414;2023-03-13T08:00:43;0.95;;;0.95;;
12263;SDS011;6194;49.010;8.414;2023-03-13T08:03:09;1.73;;;1.20;;
12263;SDS011;6194;49.010;8.414;2023-03-13T08:05:34;1.08;;;1.08;;
12263;SDS011;6194;49.010;8.414;2023-03-13T08:08:00;0.90;;;0.90;;
12263;SDS011;6194;49.010;8.414;2023-03-13T08:10:26;1.05;;;1.05;;
12263;SDS011;6194;49.010;8.414;2023-03-13T08:12:51;0.93;;;0.93;;
12263;SDS011;6194;49.010;8.414;2023-03-13T08:15:17;1.20;;;1.10;;
12263;SDS011;6194;49.010;8.414;2023-03-13T08:17:47;1.30;;;1.20;;
12263;SDS011;6194;49.010;8.414;2023-03-13T08:20:13;1.23;;;1.23;;
12263;SDS011;6194;49.010;8.414;2023-03-13T08:22:38;1.25;;;1.10;;
12263;SDS011;6194;49.010;8.414;2023-03-13T08:25:04;1.23;;;1.15;;
12263;SDS011;6194;49.010;8.414;2023-03-13T08:27:30;3.22;;;1.17;;
12263;SDS011;6194;49.010;8.414;2023-03-13T08:29:55;1.08;;;1.00;;
12263;SDS011;6194;49.010;8.414;2023-03-13T08:32:21;1.40;;;1.30;;
12263;SDS011;6194;49.010;8.414;2023-03-13T08:34:46;1.05;;;1.05;;
12263;SDS011;6194;49.010;8.414;2023-03-13T08:37:15;1.00;;;1.00;;
12263;SDS011;6194;49.010;8.414;2023-03-13T08:39:41;1.90;;;1.00;;
12263;SDS011;6194;49.010;8.414;2023-03-13T08:42:09;1.67;;;1.30;;
12263;SDS011;6194;49.010;8.414;2023-03-13T08:44:38;1.13;;;1.13;;
12263;SDS011;6194;49.010;8.414;2023-03-13T08:47:04;1.20;;;1.10;;
12263;SDS011;6194;49.010;8.414;2023-03-13T08:49:31;2.15;;;1.00;;
12263;SDS011;6194;49.010;8.414;2023-03-13T08:51:56;1.10;;;1.00;;
12263;SDS011;6194;49.010;8.414;2023-03-13T08:54:22;1.73;;;1.10;;
12263;SDS011;6194;49.010;8.414;2023-03-13T08:56:47;2.90;;;1.55;;
12263;SDS011;6194;49.010;8.414;2023-03-13T08:59:13;2.53;;;1.30;;
12263;SDS011;6194;49.010;8.414;2023-03-13T09:01:39;1.25;;;1.10;;
12263;SDS011;6194;49.010;8.414;2023-03-13T09:04:05;1.13;;;1.13;;
12263;SDS011;6194;49.010;8.414;2023-03-13T09:06:32;2.40;;;1.23;;
12263;SDS011;6194;49.010;8.414;2023-03-13T09:08:59;1.45;;;1.35;;
12263;SDS011;6194;49.010;8.414;2023-03-13T09:11:25;1.30;;;1.20;;
12263;SDS011;6194;49.010;8.414;2023-03-13T09:13:50;1.42;;;1.33;;
12263;SDS011;6194;49.010;8.414;2023-03-13T09:16:18;1.85;;;1.13;;
12263;SDS011;6194;49.010;8.414;2023-03-13T09:18:45;4.20;;;1.60;;
12263;SDS011;6194;49.010;8.414;2023-03-13T09:21:12;1.30;;;1.20;;
12263;SDS011;6194;49.010;8.414;2023-03-13T09:23:39;1.48;;;1.35;;
12263;SDS011;6194;49.010;8.414;2023-03-13T09:26:05;1.17;;;1.10;;
12263;SDS011;6194;49.010;8.414;2023-03-13T09:28:30;2.80;;;1.60;;
12263;SDS011;6194;49.010;8.414;2023-03-13T09:31:04;3.20;;;1.70;;
12263;SDS011;6194;49.010;8.414;2023-03-13T09:33:34;1.13;;;1.13;;
12263;SDS011;6194;49.010;8.414;2023-03-13T09:36:00;1.27;;;1.17;;
12263;SDS011;6194;49.010;8.414;2023-03-13T09:38:26;3.13;;;1.40;;
12263;SDS011;6194;49.010;8.414;2023-03-13T09:40:52;1.80;;;1.40;;
12263;SDS011;6194;49.010;8.414;2023-03-13T09:46:02;1.70;;;1.30;;
12263;SDS011;6194;49.010;8.414;2023-03-13T09:48:36;1.45;;;1.20;;
12263;SDS011;6194;49.010;8.414;2023-03-13T09:51:10;1.50;;;1.40;;
12263;SDS011;6194;49.010;8.414;2023-03-13T09:53:41;1.42;;;1.27;;
12263;SDS011;6194;49.010;8.414;2023-03-13T09:56:12;1.25;;;1.17;;
12263;SDS011;6194;49.010;8.414;2023-03-13T09:59:04;1.45;;;1.35;;
12263;SDS011;6194;49.010;8.414;2023-03-13T10:01:37;1.35;;;1.23;;
12263;SDS011;6194;49.010;8.414;2023-03-13T10:07:11;2.17;;;1.38;;
12263;SDS011;6194;49.010;8.414;2023-03-13T10:09:37;1.50;;;1.40;;
12263;SDS011;6194;49.010;8.414;2023-03-13T10:17:35;2.17;;;1.80;;
12263;SDS011;6194;49.010;8.414;2023-03-13T10:22:50;1.60;;;1.50;;
12263;SDS011;6194;49.010;8.414;2023-03-13T10:25:26;2.95;;;2.20;;
12263;SDS011;6194;49.010;8.414;2023-03-13T10:27:53;2.30;;;2.00;;
12263;SDS011;6194;49.010;8.414;2023-03-13T10:30:23;2.30;;;1.88;;
12263;SDS011;6194;49.010;8.414;2023-03-13T10:32:53;2.45;;;1.83;;
12263;SDS011;6194;49.010;8.414;2023-03-13T10:35:23;2.25;;;1.77;;
12263;SDS011;6194;49.010;8.414;2023-03-13T10:38:07;2.60;;;1.77;;
12263;SDS011;6194;49.010;8.414;2023-03-13T10:40:35;2.55;;;2.00;;
12263;SDS011;6194;49.010;8.414;2023-03-13T10:43:02;3.28;;;2.03;;
12263;SDS011;6194;49.010;8.414;2023-03-13T10:45:36;4.38;;;2.20;;
12263;SDS011;6194;49.010;8.414;2023-03-13T10:48:03;3.58;;;2.05;;
12263;SDS011;6194;49.010;8.414;2023-03-13T10:50:40;2.65;;;1.80;;
12263;SDS011;6194;49.010;8.414;2023-03-13T10:56:10;2.22;;;2.00;;
12263;SDS011;6194;49.010;8.414;2023-03-13T10:58:42;2.03;;;1.73;;
12263;SDS011;6194;49.010;8.414;2023-03-13T11:04:27;2.75;;;2.20;;
12263;SDS011;6194;49.010;8.414;2023-03-13T11:07:13;2.35;;;1.70;;
12263;SDS011;6194;49.010;8.414;2023-03-13T11:09:51;3.78;;;2.00;;
12263;SDS011;6194;49.010;8.414;2023-03-13T11:12:22;2.92;;;1.65;;
12263;SDS011;6194;49.010;8.414;2023-03-13T11:14:48;2.70;;;1.90;;
12263;SDS011;6194;49.010;8.414;2023-03-13T11:22:51;3.50;;;1.60;;
12263;SDS011;6194;49.010;8.414;2023-03-13T11:26:00;1.85;;;1.73;;
12263;SDS011;6194;49.010;8.414;2023-03-13T11:29:29;5.60;;;2.08;;
12263;SDS011;6194;49.010;8.414;2023-03-13T11:31:47;2.30;;;1.92;;
12263;SDS011;6194;49.010;8.414;2023-03-13T11:34:22;2.80;;;2.50;;
12263;SDS011;6194;49.010;8.414;2023-03-13T11:37:01;3.22;;;2.00;;
12263;SDS011;6194;49.010;8.414;2023-03-13T11:50:00;2.22;;;2.10;;
12263;SDS011;6194;49.010;8.414;2023-03-13T11:53:17;2.25;;;2.05;;
12263;SDS011;6194;49.010;8.414;2023-03-13T11:55:23;4.53;;;2.00;;
12263;SDS011;6194;49.010;8.414;2023-03-13T12:03:41;3.00;;;2.00;;
12263;SDS011;6194;49.010;8.414;2023-03-13T12:06:35;3.72;;;1.95;;
12263;SDS011;6194;49.010;8.414;2023-03-13T12:09:09;1.80;;;1.65;;
12263;SDS011;6194;49.010;8.414;2023-03-13T12:11:53;1.70;;;1.58;;
12263;SDS011;6194;49.010;8.414;2023-03-13T12:14:34;2.10;;;1.90;;
12263;SDS011;6194;49.010;8.414;2023-03-13T12:19:57;1.77;;;1.67;;
12263;SDS011;6194;49.010;8.414;2023-03-13T12:25:09;1.60;;;1.50;;
12263;SDS011;6194;49.010;8.414;2023-03-13T12:27:40;2.00;;;1.80;;
12263;SDS011;6194;49.010;8.414;2023-03-13T12:33:09;5.45;;;1.90;;
12263;SDS011;6194;49.010;8.414;2023-03-13T12:35:51;2.75;;;1.77;;
12263;SDS011;6194;49.010;8.414;2023-03-13T12:38:35;2.00;;;1.90;;
12263;SDS011;6194;49.010;8.414;2023-03-13T12:41:23;1.60;;;1.48;;
12263;SDS011;6194;49.010;8.414;2023-03-13T12:43:55;2.83;;;1.75;;
12263;SDS011;6194;49.010;8.414;2023-03-13T12:59:47;1.70;;;1.60;;
12263;SDS011;6194;49.010;8.414;2023-03-13T13:02:18;2.00;;;1.80;;
12263;SDS011;6194;49.010;8.414;2023-03-13T13:04:49;2.65;;;1.77;;
12263;SDS011;6194;49.010;8.414;2023-03-13T13:07:27;1.90;;;1.70;;
12263;SDS011;6194;49.010;8.414;2023-03-13T13:12:39;2.22;;;1.83;;
12263;SDS011;6194;49.010;8.414;2023-03-13T13:15:13;1.60;;;1.50;;
12263;SDS011;6194;49.010;8.414;2023-03-13T13:20:32;1.83;;;1.70;;
12263;SDS011;6194;49.010;8.414;2023-03-13T13:23:20;2.10;;;1.75;;
12263;SDS011;6194;49.010;8.414;2023-03-13T13:25:47;1.90;;;1.70;;
12263;SDS011;6194;49.010;8.414;2023-03-13T13:30:45;3.53;;;1.60;;
12263;SDS011;6194;49.010;8.414;2023-03-13T13:35:48;1.75;;;1.65;;
12263;SDS011;6194;49.010;8.414;2023-03-13T13:38:32;1.95;;;1.70;;
12263;SDS011;6194;49.010;8.414;2023-03-13T13:43:38;3.55;;;2.40;;
12263;SDS011;6194;49.010;8.414;2023-03-13T13:51:40;2.50;;;2.00;;
12263;SDS011;6194;49.010;8.414;2023-03-13T13:59:42;3.15;;;1.48;;
12263;SDS011;6194;49.010;8.414;2023-03-13T14:02:15;2.10;;;1.30;;
12263;SDS011;6194;49.010;8.414;2023-03-13T14:05:00;2.10;;;1.70;;
12263;SDS011;6194;49.010;8.414;2023-03-13T14:10:05;1.75;;;1.60;;
12263;SDS011;6194;49.010;8.414;2023-03-13T14:12:44;2.15;;;1.55;;
12263;SDS011;6194;49.010;8.414;2023-03-13T14:15:16;3.30;;;1.60;;
12263;SDS011;6194;49.010;8.414;2023-03-13T14:17:50;5.70;;;1.60;;
12263;SDS011;6194;49.010;8.414;2023-03-13T14:20:29;2.60;;;1.65;;
12263;SDS011;6194;49.010;8.414;2023-03-13T14:22:59;1.50;;;1.40;;
12263;SDS011;6194;49.010;8.414;2023-03-13T14:25:28;3.05;;;1.73;;
12263;SDS011;6194;49.010;8.414;2023-03-13T14:28:14;1.85;;;1.50;;
12263;SDS011;6194;49.010;8.414;2023-03-13T14:30:42;1.75;;;1.52;;
12263;SDS011;6194;49.010;8.414;2023-03-13T14:33:08;3.78;;;1.60;;
12263;SDS011;6194;49.010;8.414;2023-03-13T14:35:34;4.10;;;1.42;;
12263;SDS011;6194;49.010;8.414;2023-03-13T14:38:00;2.40;;;1.55;;
12263;SDS011;6194;49.010;8.414;2023-03-13T14:40:27;2.03;;;1.50;;
12263;SDS011;6194;49.010;8.414;2023-03-13T14:42:55;2.47;;;1.30;;
12263;SDS011;6194;49.010;8.414;2023-03-13T14:45:27;1.50;;;1.40;;
12263;SDS011;6194;49.010;8.414;2023-03-13T14:48:09;5.55;;;1.85;;
12263;SDS011;6194;49.010;8.414;2023-03-13T14:50:42;2.28;;;1.55;;
12263;SDS011;6194;49.010;8.414;2023-03-13T14:53:12;1.80;;;1.70;;
12263;SDS011;6194;49.010;8.414;2023-03-13T14:55:41;3.88;;;1.55;;
12263;SDS011;6194;49.010;8.414;2023-03-13T15:00:51;2.15;;;1.30;;
12263;SDS011;6194;49.010;8.414;2023-03-13T15:03:24;1.83;;;1.50;;
12263;SDS011;6194;49.010;8.414;2023-03-13T15:08:37;3.15;;;1.58;;
12263;SDS011;6194;49.010;8.414;2023-03-13T15:13:58;3.67;;;1.80;;
12263;SDS011;6194;49.010;8.414;2023-03-13T15:16:25;2.33;;;1.33;;
12263;SDS011;6194;49.010;8.414;2023-03-13T15:18:52;1.33;;;1.27;;
12263;SDS011;6194;49.010;8.414;2023-03-13T15:21:19;1.52;;;1.40;;
12263;SDS011;6194;49.010;8.414;2023-03-13T15:23:52;2.67;;;1.33;;
12263;SDS011;6194;49.010;8.414;2023-03-13T15:26:26;2.95;;;2.08;;
12263;SDS011;6194;49.010;8.414;2023-03-13T15:28:52;3.22;;;1.70;;
12263;SDS011;6194;49.010;8.414;2023-03-13T15:31:19;4.15;;;1.67;;
12263;SDS011;6194;49.010;8.414;2023-03-13T15:33:47;3.47;;;1.50;;
12263;SDS011;6194;49.010;8.414;2023-03-13T15:36:15;2.17;;;1.33;;
12263;SDS011;6194;49.010;8.414;2023-03-13T15:38:41;1.60;;;1.50;;
12263;SDS011;6194;49.010;8.414;2023-03-13T15:41:06;2.20;;;1.60;;
12263;SDS011;6194;49.010;8.414;2023-03-13T15:43:33;1.70;;;1.48;;
12263;SDS011;6194;49.010;8.414;2023-03-13T15:46:00;1.50;;;1.40;;
12263;SDS011;6194;49.010;8.414;2023-03-13T15:48:26;1.90;;;1.70;;
12263;SDS011;6194;49.010;8.414;2023-03-13T15:50:56;1.92;;;1.73;;
12263;SDS011;6194;49.010;8.414;2023-03-13T15:53:25;1.77;;;1.27;;
12263;SDS011;6194;49.010;8.414;2023-03-13T15:56:02;1.70;;;1.35;;
12263;SDS011;6194;49.010;8.414;2023-03-13T15:58:36;3.72;;;1.70;;
12263;SDS011;6194;49.010;8.414;2023-03-13T16:01:02;1.58;;;1.48;;
12263;SDS011;6194;49.010;8.414;2023-03-13T16:03:28;3.05;;;1.92;;
12263;SDS011;6194;49.010;8.414;2023-03-13T16:05:54;3.20;;;1.55;;
12263;SDS011;6194;49.010;8.414;2023-03-13T16:08:21;1.60;;;1.50;;
12263;SDS011;6194;49.010;8.414;2023-03-13T16:10:49;2.10;;;1.50;;
12263;SDS011;6194;49.010;8.414;2023-03-13T16:13:15;2.40;;;1.67;;
12263;SDS011;6194;49.010;8.414;2023-03-13T16:15:41;2.58;;;1.67;;
12263;SDS011;6194;49.010;8.414;2023-03-13T16:18:08;5.70;;;1.65;;
12263;SDS011;6194;49.010;8.414;2023-03-13T16:20:39;2.40;;;1.70;;
12263;SDS011;6194;49.010;8.414;2023-03-13T16:23:05;2.33;;;1.70;;
12263;SDS011;6194;49.010;8.414;2023-03-13T16:25:31;2.90;;;1.42;;
12263;SDS011;6194;49.010;8.414;2023-03-13T16:27:57;2.15;;;1.55;;
12263;SDS011;6194;49.010;8.414;2023-03-13T16:30:27;3.45;;;1.80;;
12263;SDS011;6194;49.010;8.414;2023-03-13T16:32:54;2.15;;;1.80;;
12263;SDS011;6194;49.010;8.414;2023-03-13T16:35:20;1.70;;;1.60;;
12263;SDS011;6194;49.010;8.414;2023-03-13T16:37:46;1.70;;;1.60;;
12263;SDS011;6194;49.010;8.414;2023-03-13T16:40:17;5.10;;;1.80;;
12263;SDS011;6194;49.010;8.414;2023-03-13T16:42:44;4.80;;;2.17;;
12263;SDS011;6194;49.010;8.414;2023-03-13T16:45:10;2.00;;;1.80;;
12263;SDS011;6194;49.010;8.414;2023-03-13T16:47:37;4.75;;;1.70;;
12263;SDS011;6194;49.010;8.414;2023-03-13T16:52:50;3.20;;;1.80;;
12263;SDS011;6194;49.010;8.414;2023-03-13T16:55:17;2.53;;;1.83;;
12263;SDS011;6194;49.010;8.414;2023-03-13T16:57:43;1.83;;;1.60;;
12263;SDS011;6194;49.010;8.414;2023-03-13T17:00:16;3.25;;;2.03;;
12263;SDS011;6194;49.010;8.414;2023-03-13T17:02:45;2.35;;;2.05;;
12263;SDS011;6194;49.010;8.414;2023-03-13T17:05:12;3.83;;;1.88;;
12263;SDS011;6194;49.010;8.414;2023-03-13T17:07:40;2.67;;;2.47;;
12263;SDS011;6194;49.010;8.414;2023-03-13T17:10:14;7.90;;;2.75;;